sensor_id;sensor_type;location;lat;lon;timestamp;pressure;altitude;pressure_sealevel;temperature;humidity
55604;BME280;41468;48.838;9.330;2023-01-30T00:01:17;99016.91;;;-1.14;82.53
55604;BME280;41468;48.838;9.330;2023-01-30T00:03:44;99013.50;;;-1.35;83.19
55604;BME280;41468;48.838;9.330;2023-01-30T00:06:11;99017.13;;;-0.95;82.97
55604;BME280;41468;48.838;9.330;2023-01-30T00:08:38;99003.03;;;-1.26;83.21
55604;BME280;41468;48.838;9.330;2023-01-30T00:11:07;98992.81;;;-1.24;83.50
55604;BME280;41468;48.838;9.330;2023-01-30T00:13:34;98986.66;;;-1.14;83.77
55604;BME280;41468;48.838;9.330;2023-01-30T00:16:01;98976.31;;;-0.86;83.63
55604;BME280;41468;48.838;9.330;2023-01-30T00:18:28;98970.00;;;-0.56;82.47
55604;BME280;41468;48.838;9.330;2023-01-30T00:20:56;98969.94;;;-0.51;81.30
55604;BME280;41468;48.838;9.330;2023-01-30T00:23:23;98975.47;;;-0.72;81.71
55604;BME280;41468;48.838;9.330;2023-01-30T00:25:50;98983.59;;;-0.92;81.90
55604;BME280;41468;48.838;9.330;2023-01-30T00:28:17;98986.66;;;-1.14;82.22
55604;BME280;41468;48.838;9.330;2023-01-30T00:30:44;98981.53;;;-1.16;83.04
55604;BME280;41468;48.838;9.330;2023-01-30T00:33:13;98977.56;;;-1.18;83.47
55604;BME280;41468;48.838;9.330;2023-01-30T00:35:43;98963.97;;;-0.77;82.69
55604;BME280;41468;48.838;9.330;2023-01-30T00:38:12;98956.78;;;-0.92;82.61
55604;BME280;41468;48.838;9.330;2023-01-30T00:40:39;98961.53;;;-0.79;82.49
55604;BME280;41468;48.838;9.330;2023-01-30T00:43:05;98963.59;;;-1.10;83.04
55604;BME280;41468;48.838;9.330;2023-01-30T00:45:53;98960.25;;;-0.92;82.25
55604;BME280;41468;48.838;9.330;2023-01-30T00:48:38;98965.75;;;-1.17;82.48
55604;BME280;41468;48.838;9.330;2023-01-30T00:51:05;98981.88;;;-1.27;83.29
55604;BME280;41468;48.838;9.330;2023-01-30T00:53:31;98986.13;;;-1.26;82.88
55604;BME280;41468;48.838;9.330;2023-01-30T00:56:11;98991.81;;;-1.48;83.22
55604;BME280;41468;48.838;9.330;2023-01-30T00:58:38;98995.06;;;-1.57;84.26
55604;BME280;41468;48.838;9.330;2023-01-30T01:01:04;99001.81;;;-1.74;85.16
55604;BME280;41468;48.838;9.330;2023-01-30T01:03:31;99014.59;;;-1.41;83.79
55604;BME280;41468;48.838;9.330;2023-01-30T01:05:58;99024.97;;;-1.24;83.53
55604;BME280;41468;48.838;9.330;2023-01-30T01:08:24;99032.72;;;-1.02;82.66
55604;BME280;41468;48.838;9.330;2023-01-30T01:10:51;99040.22;;;-1.04;82.26
55604;BME280;41468;48.838;9.330;2023-01-30T01:13:17;99039.19;;;-1.18;82.66
55604;BME280;41468;48.838;9.330;2023-01-30T01:15:44;99031.16;;;-1.23;83.43
55604;BME280;41468;48.838;9.330;2023-01-30T01:18:11;99030.06;;;-1.17;83.34
55604;BME280;41468;48.838;9.330;2023-01-30T01:20:37;99030.63;;;-1.20;83.97
55604;BME280;41468;48.838;9.330;2023-01-30T01:23:04;99028.97;;;-1.11;83.78
55604;BME280;41468;48.838;9.330;2023-01-30T01:25:30;99032.19;;;-1.09;83.52
55604;BME280;41468;48.838;9.330;2023-01-30T01:27:57;99037.50;;;-0.88;82.52
55604;BME280;41468;48.838;9.330;2023-01-30T01:30:23;99046.69;;;-1.15;82.62
55604;BME280;41468;48.838;9.330;2023-01-30T01:32:50;99052.28;;;-1.06;82.66
55604;BME280;41468;48.838;9.330;2023-01-30T01:35:17;99049.31;;;-1.05;83.32
55604;BME280;41468;48.838;9.330;2023-01-30T01:37:45;99053.56;;;-0.88;83.62
55604;BME280;41468;48.838;9.330;2023-01-30T01:40:17;99047.44;;;-0.99;83.22
55604;BME280;41468;48.838;9.330;2023-01-30T01:43:18;99029.66;;;-0.80;82.85
55604;BME280;41468;48.838;9.330;2023-01-30T01:45:47;99040.75;;;-0.97;83.58
55604;BME280;41468;48.838;9.330;2023-01-30T01:48:21;99038.56;;;-0.95;84.66
55604;BME280;41468;48.838;9.330;2023-01-30T01:51:01;99044.47;;;-0.93;84.42
55604;BME280;41468;48.838;9.330;2023-01-30T01:53:33;99039.63;;;-0.91;84.68
55604;BME280;41468;48.838;9.330;2023-01-30T01:56:01;99041.22;;;-0.90;84.89
55604;BME280;41468;48.838;9.330;2023-01-30T01:58:38;99028.88;;;-0.80;84.13
55604;BME280;41468;48.838;9.330;2023-01-30T02:01:06;99034.25;;;-0.80;83.73
55604;BME280;41468;48.838;9.330;2023-01-30T02:03:36;99035.28;;;-0.81;83.67
55604;BME280;41468;48.838;9.330;2023-01-30T02:06:16;99042.53;;;-0.82;83.77
55604;BME280;41468;48.838;9.330;2023-01-30T02:08:55;99041.75;;;-0.82;83.94
55604;BME280;41468;48.838;9.330;2023-01-30T02:11:30;99040.09;;;-0.73;83.63
55604;BME280;41468;48.838;9.330;2023-01-30T02:13:59;99037.97;;;-0.81;83.88
55604;BME280;41468;48.838;9.330;2023-01-30T02:16:27;99036.91;;;-0.75;83.96
55604;BME280;41468;48.838;9.330;2023-01-30T02:18:54;99024.72;;;-0.57;83.46
55604;BME280;41468;48.838;9.330;2023-01-30T02:21:49;99020.16;;;-0.57;83.36
55604;BME280;41468;48.838;9.330;2023-01-30T02:24:50;99006.81;;;-0.67;83.30
55604;BME280;41468;48.838;9.330;2023-01-30T02:28:04;99018.34;;;-0.67;83.23
55604;BME280;41468;48.838;9.330;2023-01-30T02:30:56;98993.06;;;-0.55;82.47
55604;BME280;41468;48.838;9.330;2023-01-30T02:36:17;98993.06;;;-0.55;82.24
55604;BME280;41468;48.838;9.330;2023-01-30T02:42:03;98999.78;;;-0.58;81.20
55604;BME280;41468;48.838;9.330;2023-01-30T02:44:44;98971.09;;;-0.62;81.78
55604;BME280;41468;48.838;9.330;2023-01-30T02:47:29;98947.34;;;-0.40;80.47
55604;BME280;41468;48.838;9.330;2023-01-30T02:50:07;98962.16;;;-0.48;80.56
55604;BME280;41468;48.838;9.330;2023-01-30T02:52:36;98970.00;;;-0.56;81.26
55604;BME280;41468;48.838;9.330;2023-01-30T02:55:08;98989.78;;;-0.47;80.46
55604;BME280;41468;48.838;9.330;2023-01-30T02:57:35;98969.13;;;-0.47;80.20
55604;BME280;41468;48.838;9.330;2023-01-30T03:00:03;98942.56;;;-0.43;80.64
55604;BME280;41468;48.838;9.330;2023-01-30T03:11:06;98949.28;;;-0.90;82.44
55604;BME280;41468;48.838;9.330;2023-01-30T03:16:24;98939.09;;;-0.93;82.49
55604;BME280;41468;48.838;9.330;2023-01-30T03:18:51;98911.06;;;-0.67;81.94
55604;BME280;41468;48.838;9.330;2023-01-30T03:21:18;98900.56;;;-0.63;81.36
55604;BME280;41468;48.838;9.330;2023-01-30T03:23:45;98874.38;;;-0.76;81.90
55604;BME280;41468;48.838;9.330;2023-01-30T03:26:22;98870.66;;;-0.80;82.13
55604;BME280;41468;48.838;9.330;2023-01-30T03:28:51;98840.59;;;-0.77;82.31
55604;BME280;41468;48.838;9.330;2023-01-30T03:31:18;98823.47;;;-0.81;82.69
55604;BME280;41468;48.838;9.330;2023-01-30T03:33:44;98826.19;;;-0.86;82.94
55604;BME280;41468;48.838;9.330;2023-01-30T03:36:16;98838.50;;;-0.80;82.63
55604;BME280;41468;48.838;9.330;2023-01-30T03:38:43;98836.34;;;-0.83;83.00
55604;BME280;41468;48.838;9.330;2023-01-30T03:41:09;98849.72;;;-0.78;83.28
55604;BME280;41468;48.838;9.330;2023-01-30T03:43:36;98857.50;;;-0.77;83.23
55604;BME280;41468;48.838;9.330;2023-01-30T03:46:03;98859.53;;;-0.63;82.77
55604;BME280;41468;48.838;9.330;2023-01-30T03:48:29;98862.91;;;-0.48;82.19
55604;BME280;41468;48.838;9.330;2023-01-30T03:51:07;98866.09;;;-0.46;81.77
55604;BME280;41468;48.838;9.330;2023-01-30T03:53:34;98871.38;;;-0.35;81.26
55604;BME280;41468;48.838;9.330;2023-01-30T03:56:01;98881.97;;;-0.20;80.62
55604;BME280;41468;48.838;9.330;2023-01-30T03:58:28;98859.19;;;-0.23;80.75
55604;BME280;41468;48.838;9.330;2023-01-30T04:00:55;98860.03;;;-0.27;80.52
55604;BME280;41468;48.838;9.330;2023-01-30T04:03:23;98847.66;;;-0.23;80.35
55604;BME280;41468;48.838;9.330;2023-01-30T04:05:49;98852.41;;;-0.15;80.34
55604;BME280;41468;48.838;9.330;2023-01-30T04:08:16;98875.84;;;-0.26;80.77
55604;BME280;41468;48.838;9.330;2023-01-30T04:10:43;98874.66;;;-0.14;80.23
55604;BME280;41468;48.838;9.330;2023-01-30T04:13:09;98877.09;;;-0.13;79.90
55604;BME280;41468;48.838;9.330;2023-01-30T04:15:36;98858.75;;;-0.06;80.79
55604;BME280;41468;48.838;9.330;2023-01-30T04:18:02;98857.19;;;-0.12;80.24
55604;BME280;41468;48.838;9.330;2023-01-30T04:20:29;98857.09;;;-0.02;80.11
55604;BME280;41468;48.838;9.330;2023-01-30T04:22:55;98862.81;;;0.16;79.26
55604;BME280;41468;48.838;9.330;2023-01-30T04:25:22;98862.69;;;0.26;77.89
55604;BME280;41468;48.838;9.330;2023-01-30T04:27:49;98865.34;;;0.31;77.86
55604;BME280;41468;48.838;9.330;2023-01-30T04:30:16;98855.38;;;0.32;78.00
55604;BME280;41468;48.838;9.330;2023-01-30T04:32:42;98855.00;;;0.43;76.93
55604;BME280;41468;48.838;9.330;2023-01-30T04:35:09;98862.81;;;0.40;76.37
55604;BME280;41468;48.838;9.330;2023-01-30T04:37:36;98852.88;;;0.40;76.45
55604;BME280;41468;48.838;9.330;2023-01-30T04:40:03;98853.09;;;0.44;76.69
55604;BME280;41468;48.838;9.330;2023-01-30T04:42:30;98850.56;;;0.53;75.78
55604;BME280;41468;48.838;9.330;2023-01-30T04:44:57;98839.03;;;0.52;75.90
55604;BME280;41468;48.838;9.330;2023-01-30T04:47:23;98844.03;;;0.59;75.19
55604;BME280;41468;48.838;9.330;2023-01-30T04:49:50;98847.81;;;0.58;74.26
55604;BME280;41468;48.838;9.330;2023-01-30T04:52:16;98844.22;;;0.68;74.05
55604;BME280;41468;48.838;9.330;2023-01-30T04:54:43;98842.38;;;0.63;74.09
55604;BME280;41468;48.838;9.330;2023-01-30T04:57:09;98834.09;;;0.59;74.13
55604;BME280;41468;48.838;9.330;2023-01-30T04:59:36;98834.19;;;0.73;73.80
55604;BME280;41468;48.838;9.330;2023-01-30T05:02:03;98838.59;;;0.64;73.67
55604;BME280;41468;48.838;9.330;2023-01-30T05:04:29;98847.69;;;0.68;74.12
55604;BME280;41468;48.838;9.330;2023-01-30T05:06:56;98839.63;;;0.68;73.30
55604;BME280;41468;48.838;9.330;2023-01-30T05:09:22;98833.75;;;0.66;73.86
55604;BME280;41468;48.838;9.330;2023-01-30T05:11:49;98835.06;;;0.69;73.98
55604;BME280;41468;48.838;9.330;2023-01-30T05:14:16;98817.75;;;0.75;73.93
55604;BME280;41468;48.838;9.330;2023-01-30T05:16:42;98818.34;;;0.91;73.16
55604;BME280;41468;48.838;9.330;2023-01-30T05:19:11;98814.78;;;0.95;73.10
55604;BME280;41468;48.838;9.330;2023-01-30T05:21:37;98809.34;;;0.81;72.69
55604;BME280;41468;48.838;9.330;2023-01-30T05:24:04;98815.72;;;0.85;72.99
55604;BME280;41468;48.838;9.330;2023-01-30T05:26:31;98810.34;;;0.85;73.39
55604;BME280;41468;48.838;9.330;2023-01-30T05:28:58;98812.25;;;0.85;73.42
55604;BME280;41468;48.838;9.330;2023-01-30T05:31:25;98810.41;;;0.99;73.40
55604;BME280;41468;48.838;9.330;2023-01-30T05:33:52;98805.91;;;0.95;73.54
55604;BME280;41468;48.838;9.330;2023-01-30T05:36:19;98806.84;;;1.04;73.38
55604;BME280;41468;48.838;9.330;2023-01-30T05:38:46;98788.97;;;1.13;72.89
55604;BME280;41468;48.838;9.330;2023-01-30T05:41:15;98794.84;;;1.15;72.27
55604;BME280;41468;48.838;9.330;2023-01-30T05:43:42;98784.47;;;1.08;72.99
55604;BME280;41468;48.838;9.330;2023-01-30T05:46:10;98788.97;;;1.13;73.02
55604;BME280;41468;48.838;9.330;2023-01-30T05:48:37;98806.03;;;1.22;72.41
55604;BME280;41468;48.838;9.330;2023-01-30T05:51:05;98805.75;;;1.24;72.48
55604;BME280;41468;48.838;9.330;2023-01-30T05:53:33;98802.81;;;1.20;72.72
55604;BME280;41468;48.838;9.330;2023-01-30T05:56:03;98815.13;;;1.26;71.86
55604;BME280;41468;48.838;9.330;2023-01-30T05:58:35;98819.91;;;1.29;72.01
55604;BME280;41468;48.838;9.330;2023-01-30T06:01:04;98819.03;;;1.15;72.60
55604;BME280;41468;48.838;9.330;2023-01-30T06:03:31;98816.78;;;1.22;72.54
55604;BME280;41468;48.838;9.330;2023-01-30T06:06:00;98800.38;;;1.24;72.42
55604;BME280;41468;48.838;9.330;2023-01-30T06:08:27;98802.75;;;1.25;71.83
55604;BME280;41468;48.838;9.330;2023-01-30T06:10:54;98805.00;;;1.18;71.93
55604;BME280;41468;48.838;9.330;2023-01-30T06:13:20;98796.28;;;1.26;72.13
55604;BME280;41468;48.838;9.330;2023-01-30T06:15:47;98803.94;;;1.19;72.37
55604;BME280;41468;48.838;9.330;2023-01-30T06:18:13;98785.53;;;1.26;72.48
55604;BME280;41468;48.838;9.330;2023-01-30T06:20:40;98782.84;;;1.26;72.54
55604;BME280;41468;48.838;9.330;2023-01-30T06:23:07;98772.66;;;1.23;72.35
55604;BME280;41468;48.838;9.330;2023-01-30T06:25:33;98771.06;;;1.22;72.39
55604;BME280;41468;48.838;9.330;2023-01-30T06:28:00;98765.50;;;1.32;71.96
55604;BME280;41468;48.838;9.330;2023-01-30T06:30:26;98769.59;;;1.30;71.75
55604;BME280;41468;48.838;9.330;2023-01-30T06:32:53;98767.97;;;1.29;72.15
55604;BME280;41468;48.838;9.330;2023-01-30T06:35:19;98768.56;;;1.26;71.85
55604;BME280;41468;48.838;9.330;2023-01-30T06:37:46;98762.31;;;1.30;72.38
55604;BME280;41468;48.838;9.330;2023-01-30T06:40:24;98768.13;;;1.38;71.91
55604;BME280;41468;48.838;9.330;2023-01-30T06:42:51;98769.50;;;1.35;71.97
55604;BME280;41468;48.838;9.330;2023-01-30T06:45:18;98771.06;;;1.22;71.79
55604;BME280;41468;48.838;9.330;2023-01-30T06:47:47;98780.16;;;1.26;72.03
55604;BME280;41468;48.838;9.330;2023-01-30T06:50:15;98778.69;;;1.15;72.82
55604;BME280;41468;48.838;9.330;2023-01-30T06:52:43;98782.25;;;1.29;72.33
55604;BME280;41468;48.838;9.330;2023-01-30T06:55:12;98770.84;;;1.19;71.98
55604;BME280;41468;48.838;9.330;2023-01-30T06:57:39;98780.16;;;1.26;72.40
55604;BME280;41468;48.838;9.330;2023-01-30T07:00:09;98777.72;;;1.58;73.80
55604;BME280;41468;48.838;9.330;2023-01-30T07:02:37;98775.41;;;1.37;72.11
55604;BME280;41468;48.838;9.330;2023-01-30T07:05:04;98769.03;;;1.47;73.21
55604;BME280;41468;48.838;9.330;2023-01-30T07:07:32;98783.88;;;1.44;71.98
55604;BME280;41468;48.838;9.330;2023-01-30T07:09:59;98787.50;;;1.53;72.70
55604;BME280;41468;48.838;9.330;2023-01-30T07:12:33;98786.78;;;1.48;72.35
55604;BME280;41468;48.838;9.330;2023-01-30T07:15:01;98786.28;;;1.46;72.90
55604;BME280;41468;48.838;9.330;2023-01-30T07:17:35;98786.97;;;1.51;72.72
55604;BME280;41468;48.838;9.330;2023-01-30T07:20:02;98794.19;;;1.56;72.87
55604;BME280;41468;48.838;9.330;2023-01-30T07:22:29;98796.34;;;1.54;72.73
55604;BME280;41468;48.838;9.330;2023-01-30T07:24:55;98801.81;;;1.49;72.70
55604;BME280;41468;48.838;9.330;2023-01-30T07:27:22;98805.81;;;1.51;73.13
55604;BME280;41468;48.838;9.330;2023-01-30T07:29:48;98806.91;;;1.50;73.50
55604;BME280;41468;48.838;9.330;2023-01-30T07:32:21;98803.72;;;1.48;73.51
55604;BME280;41468;48.838;9.330;2023-01-30T07:34:48;98796.63;;;1.52;73.22
55604;BME280;41468;48.838;9.330;2023-01-30T07:37:14;98808.72;;;1.55;72.80
55604;BME280;41468;48.838;9.330;2023-01-30T07:39:41;98802.03;;;1.52;73.18
55604;BME280;41468;48.838;9.330;2023-01-30T07:42:07;98806.63;;;1.52;73.14
55604;BME280;41468;48.838;9.330;2023-01-30T07:44:34;98817.88;;;1.54;73.82
55604;BME280;41468;48.838;9.330;2023-01-30T07:47:01;98824.75;;;1.46;74.14
55604;BME280;41468;48.838;9.330;2023-01-30T07:49:27;98814.41;;;1.53;73.59
55604;BME280;41468;48.838;9.330;2023-01-30T07:51:54;98828.78;;;1.63;73.33
55604;BME280;41468;48.838;9.330;2023-01-30T07:54:21;98819.31;;;1.65;73.77
55604;BME280;41468;48.838;9.330;2023-01-30T07:56:47;98807.16;;;1.68;73.34
55604;BME280;41468;48.838;9.330;2023-01-30T07:59:14;98800.88;;;1.72;73.02
55604;BME280;41468;48.838;9.330;2023-01-30T08:01:41;98803.16;;;1.65;73.44
55604;BME280;41468;48.838;9.330;2023-01-30T08:04:07;98797.97;;;1.69;73.42
55604;BME280;41468;48.838;9.330;2023-01-30T08:06:34;98790.22;;;1.81;72.86
55604;BME280;41468;48.838;9.330;2023-01-30T08:09:05;98793.59;;;1.73;73.31
55604;BME280;41468;48.838;9.330;2023-01-30T08:11:32;98798.88;;;1.78;73.14
55604;BME280;41468;48.838;9.330;2023-01-30T08:13:59;98811.84;;;1.76;72.92
55604;BME280;41468;48.838;9.330;2023-01-30T08:16:26;98822.63;;;1.76;73.71
55604;BME280;41468;48.838;9.330;2023-01-30T08:18:52;98831.19;;;1.78;75.32
55604;BME280;41468;48.838;9.330;2023-01-30T08:21:19;98839.56;;;1.76;75.79
55604;BME280;41468;48.838;9.330;2023-01-30T08:23:46;98828.88;;;1.71;75.53
55604;BME280;41468;48.838;9.330;2023-01-30T08:26:12;98796.72;;;1.80;75.80
55604;BME280;41468;48.838;9.330;2023-01-30T08:28:39;98795.19;;;1.74;76.18
55604;BME280;41468;48.838;9.330;2023-01-30T08:31:13;98792.19;;;1.75;76.52
55604;BME280;41468;48.838;9.330;2023-01-30T08:33:40;98766.97;;;1.85;77.15
55604;BME280;41468;48.838;9.330;2023-01-30T08:36:07;98762.19;;;1.82;77.10
55604;BME280;41468;48.838;9.330;2023-01-30T08:38:34;98741.56;;;1.91;76.95
55604;BME280;41468;48.838;9.330;2023-01-30T08:41:03;98758.00;;;1.90;77.10
55604;BME280;41468;48.838;9.330;2023-01-30T08:43:30;98750.94;;;1.80;77.80
55604;BME280;41468;48.838;9.330;2023-01-30T08:45:57;98764.50;;;1.89;77.52
55604;BME280;41468;48.838;9.330;2023-01-30T08:48:23;98767.97;;;1.89;78.22
55604;BME280;41468;48.838;9.330;2023-01-30T08:50:54;98763.88;;;1.92;77.83
55604;BME280;41468;48.838;9.330;2023-01-30T08:53:21;98753.22;;;2.01;77.20
55604;BME280;41468;48.838;9.330;2023-01-30T08:55:51;98737.84;;;2.01;77.20
55604;BME280;41468;48.838;9.330;2023-01-30T08:58:21;98744.63;;;1.98;77.46
55604;BME280;41468;48.838;9.330;2023-01-30T09:00:48;98744.41;;;2.09;77.04
55604;BME280;41468;48.838;9.330;2023-01-30T09:03:17;98726.25;;;2.14;76.88
55604;BME280;41468;48.838;9.330;2023-01-30T09:05:44;98705.03;;;2.13;76.96
55604;BME280;41468;48.838;9.330;2023-01-30T09:08:11;98696.50;;;2.19;76.50
55604;BME280;41468;48.838;9.330;2023-01-30T09:10:38;98708.41;;;2.18;76.10
55604;BME280;41468;48.838;9.330;2023-01-30T09:13:08;98709.28;;;2.28;76.50
55604;BME280;41468;48.838;9.330;2023-01-30T09:15:35;98722.53;;;2.38;76.59
55604;BME280;41468;48.838;9.330;2023-01-30T09:18:02;98710.53;;;2.44;75.91
55604;BME280;41468;48.838;9.330;2023-01-30T09:20:29;98706.13;;;2.48;75.04
55604;BME280;41468;48.838;9.330;2023-01-30T09:22:56;98716.41;;;2.46;75.51
55604;BME280;41468;48.838;9.330;2023-01-30T09:25:23;98723.72;;;2.46;74.92
55604;BME280;41468;48.838;9.330;2023-01-30T09:27:49;98715.44;;;2.42;74.82
55604;BME280;41468;48.838;9.330;2023-01-30T09:30:16;98714.16;;;2.39;75.00
55604;BME280;41468;48.838;9.330;2023-01-30T09:32:44;98716.03;;;2.39;75.31
55604;BME280;41468;48.838;9.330;2023-01-30T09:35:10;98705.34;;;2.48;75.02
55604;BME280;41468;48.838;9.330;2023-01-30T09:37:37;98717.03;;;2.43;74.86
55604;BME280;41468;48.838;9.330;2023-01-30T09:40:04;98712.44;;;2.43;74.70
55604;BME280;41468;48.838;9.330;2023-01-30T09:42:44;98699.63;;;2.49;74.76
55604;BME280;41468;48.838;9.330;2023-01-30T09:48:05;98702.72;;;2.56;74.99
55604;BME280;41468;48.838;9.330;2023-01-30T09:56:17;98690.34;;;2.55;75.94
55604;BME280;41468;48.838;9.330;2023-01-30T09:58:48;98678.22;;;2.67;75.65
55604;BME280;41468;48.838;9.330;2023-01-30T10:06:50;98669.50;;;2.70;75.72
55604;BME280;41468;48.838;9.330;2023-01-30T10:12:24;98657.06;;;2.82;75.62
55604;BME280;41468;48.838;9.330;2023-01-30T10:17:50;98642.84;;;2.91;75.72
55604;BME280;41468;48.838;9.330;2023-01-30T10:23:11;98644.47;;;3.00;75.93
55604;BME280;41468;48.838;9.330;2023-01-30T10:25:53;98645.63;;;3.08;75.92
55604;BME280;41468;48.838;9.330;2023-01-30T10:28:28;98636.84;;;3.02;75.84
55604;BME280;41468;48.838;9.330;2023-01-30T10:31:04;98632.59;;;3.01;76.71
55604;BME280;41468;48.838;9.330;2023-01-30T10:33:35;98634.81;;;3.08;76.71
55604;BME280;41468;48.838;9.330;2023-01-30T10:36:06;98641.19;;;3.12;76.69
55604;BME280;41468;48.838;9.330;2023-01-30T10:38:38;98643.91;;;3.12;76.83
55604;BME280;41468;48.838;9.330;2023-01-30T10:43:42;98628.88;;;3.20;77.19
55604;BME280;41468;48.838;9.330;2023-01-30T10:49:04;98616.69;;;3.31;78.01
55604;BME280;41468;48.838;9.330;2023-01-30T10:52:16;98629.41;;;3.39;77.96
55604;BME280;41468;48.838;9.330;2023-01-30T10:54:38;98637.38;;;3.44;78.06
55604;BME280;41468;48.838;9.330;2023-01-30T10:57:19;98625.16;;;3.47;78.88
55604;BME280;41468;48.838;9.330;2023-01-30T11:00:00;98630.88;;;3.54;78.81
55604;BME280;41468;48.838;9.330;2023-01-30T11:02:34;98621.81;;;3.50;79.64
55604;BME280;41468;48.838;9.330;2023-01-30T11:05:30;98624.81;;;3.48;79.93
55604;BME280;41468;48.838;9.330;2023-01-30T11:08:11;98625.00;;;3.52;81.29
55604;BME280;41468;48.838;9.330;2023-01-30T11:10:43;98634.06;;;3.56;81.61
55604;BME280;41468;48.838;9.330;2023-01-30T11:13:17;98628.97;;;3.54;82.34
55604;BME280;41468;48.838;9.330;2023-01-30T11:15:47;98632.16;;;3.57;82.75
55604;BME280;41468;48.838;9.330;2023-01-30T11:18:22;98642.16;;;3.56;83.33
55604;BME280;41468;48.838;9.330;2023-01-30T11:21:17;98622.63;;;3.59;84.00
55604;BME280;41468;48.838;9.330;2023-01-30T11:23:45;98621.34;;;3.57;84.47
55604;BME280;41468;48.838;9.330;2023-01-30T11:26:40;98619.94;;;3.59;83.98
55604;BME280;41468;48.838;9.330;2023-01-30T11:29:28;98617.72;;;3.61;84.61
55604;BME280;41468;48.838;9.330;2023-01-30T11:31:57;98622.97;;;3.66;84.60
55604;BME280;41468;48.838;9.330;2023-01-30T11:34:27;98622.19;;;3.66;84.58
55604;BME280;41468;48.838;9.330;2023-01-30T11:37:11;98624.41;;;3.64;84.46
55604;BME280;41468;48.838;9.330;2023-01-30T11:39:47;98630.09;;;3.62;85.46
55604;BME280;41468;48.838;9.330;2023-01-30T11:42:17;98617.56;;;3.58;86.74
55604;BME280;41468;48.838;9.330;2023-01-30T11:44:45;98621.38;;;3.65;86.54
55604;BME280;41468;48.838;9.330;2023-01-30T11:47:21;98628.38;;;3.58;86.42
55604;BME280;41468;48.838;9.330;2023-01-30T11:49:53;98635.97;;;3.56;87.30
55604;BME280;41468;48.838;9.330;2023-01-30T11:52:28;98632.28;;;3.51;87.82
55604;BME280;41468;48.838;9.330;2023-01-30T11:54:58;98633.56;;;3.45;89.20
55604;BME280;41468;48.838;9.330;2023-01-30T11:57:28;98632.91;;;3.40;90.19
55604;BME280;41468;48.838;9.330;2023-01-30T11:59:59;98628.16;;;3.45;90.28
55604;BME280;41468;48.838;9.330;2023-01-30T12:02:34;98628.44;;;3.35;90.30
55604;BME280;41468;48.838;9.330;2023-01-30T12:05:06;98625.09;;;3.38;90.36
55604;BME280;41468;48.838;9.330;2023-01-30T12:07:43;98614.78;;;3.40;90.04
55604;BME280;41468;48.838;9.330;2023-01-30T12:10:28;98611.16;;;3.36;90.03
55604;BME280;41468;48.838;9.330;2023-01-30T12:12:58;98612.72;;;3.37;89.67
55604;BME280;41468;48.838;9.330;2023-01-30T12:15:28;98599.91;;;3.51;89.63
55604;BME280;41468;48.838;9.330;2023-01-30T12:18:20;98604.22;;;3.52;89.72
55604;BME280;41468;48.838;9.330;2023-01-30T12:20:58;98605.28;;;3.51;90.02
55604;BME280;41468;48.838;9.330;2023-01-30T12:23:51;98604.34;;;3.47;89.82
55604;BME280;41468;48.838;9.330;2023-01-30T12:26:29;98603.63;;;3.24;91.20
55604;BME280;41468;48.838;9.330;2023-01-30T12:29:09;98603.94;;;3.23;93.34
55604;BME280;41468;48.838;9.330;2023-01-30T12:31:47;98617.91;;;3.25;94.74
55604;BME280;41468;48.838;9.330;2023-01-30T12:34:15;98621.72;;;3.24;95.08
55604;BME280;41468;48.838;9.330;2023-01-30T12:39:37;98631.75;;;3.32;96.22
55604;BME280;41468;48.838;9.330;2023-01-30T12:42:23;98625.34;;;3.19;95.92
55604;BME280;41468;48.838;9.330;2023-01-30T12:45:18;98626.97;;;3.20;96.35
55604;BME280;41468;48.838;9.330;2023-01-30T12:50:56;98637.75;;;3.20;98.37
55604;BME280;41468;48.838;9.330;2023-01-30T12:53:27;98643.78;;;3.17;98.75
55604;BME280;41468;48.838;9.330;2023-01-30T12:56:25;98650.56;;;3.54;100.00
55604;BME280;41468;48.838;9.330;2023-01-30T12:58:59;98647.81;;;3.37;97.85
55604;BME280;41468;48.838;9.330;2023-01-30T13:02:01;98663.84;;;3.34;97.36
55604;BME280;41468;48.838;9.330;2023-01-30T13:04:44;98643.94;;;3.21;97.60
55604;BME280;41468;48.838;9.330;2023-01-30T13:12:50;98651.63;;;3.36;98.13
55604;BME280;41468;48.838;9.330;2023-01-30T13:15:41;98653.19;;;3.28;98.22
55604;BME280;41468;48.838;9.330;2023-01-30T13:26:48;98643.22;;;3.38;99.13
55604;BME280;41468;48.838;9.330;2023-01-30T13:29:30;98643.22;;;3.46;99.95
55604;BME280;41468;48.838;9.330;2023-01-30T13:32:00;98651.34;;;3.46;99.24
55604;BME280;41468;48.838;9.330;2023-01-30T13:34:40;98654.63;;;3.35;98.79
55604;BME280;41468;48.838;9.330;2023-01-30T13:37:18;98661.19;;;3.42;99.39
55604;BME280;41468;48.838;9.330;2023-01-30T13:39:55;98656.72;;;3.46;99.41
55604;BME280;41468;48.838;9.330;2023-01-30T13:42:40;98668.50;;;3.50;98.89
55604;BME280;41468;48.838;9.330;2023-01-30T13:45:19;98679.31;;;3.50;99.61
55604;BME280;41468;48.838;9.330;2023-01-30T14:02:20;98711.72;;;3.50;100.00
55604;BME280;41468;48.838;9.330;2023-01-30T14:04:54;98700.91;;;3.50;100.00
55604;BME280;41468;48.838;9.330;2023-01-30T14:07:29;98697.31;;;3.64;99.02
55604;BME280;41468;48.838;9.330;2023-01-30T14:10:10;98693.69;;;3.68;97.01
55604;BME280;41468;48.838;9.330;2023-01-30T14:12:50;98692.72;;;3.73;97.42
55604;BME280;41468;48.838;9.330;2023-01-30T14:15:26;98699.59;;;3.79;96.55
55604;BME280;41468;48.838;9.330;2023-01-30T14:20:26;98699.63;;;3.88;96.45
55604;BME280;41468;48.838;9.330;2023-01-30T14:38:41;98725.53;;;3.97;95.29
55604;BME280;41468;48.838;9.330;2023-01-30T14:41:25;98721.09;;;3.93;94.65
55604;BME280;41468;48.838;9.330;2023-01-30T14:43:52;98724.75;;;3.97;94.32
55604;BME280;41468;48.838;9.330;2023-01-30T14:49:21;98729.84;;;3.98;93.42
55604;BME280;41468;48.838;9.330;2023-01-30T14:51:51;98725.38;;;4.03;93.15
55604;BME280;41468;48.838;9.330;2023-01-30T14:54:22;98728.88;;;3.94;93.44
55604;BME280;41468;48.838;9.330;2023-01-30T14:57:17;98741.59;;;4.03;92.91
55604;BME280;41468;48.838;9.330;2023-01-30T15:04:44;98758.31;;;4.05;91.54
55604;BME280;41468;48.838;9.330;2023-01-30T15:07:19;98758.31;;;4.13;91.08
55604;BME280;41468;48.838;9.330;2023-01-30T15:09:58;98773.91;;;4.08;91.12
55604;BME280;41468;48.838;9.330;2023-01-30T15:12:49;98779.78;;;4.10;90.44
55604;BME280;41468;48.838;9.330;2023-01-30T15:18:11;98773.72;;;4.04;89.38